createdAt,value
2019-04-26T00:01:38.373Z,1.73
2019-04-26T00:04:06.035Z,1.27
2019-04-26T00:06:33.951Z,2.70
2019-04-26T00:09:22.222Z,1.50
2019-04-26T00:12:11.206Z,1.57
2019-04-26T00:14:58.638Z,1.30
2019-04-26T00:17:33.441Z,2.37
2019-04-26T00:20:02.426Z,2.23
2019-04-26T00:22:31.014Z,1.57
2019-04-26T00:24:59.785Z,1.40
2019-04-26T00:27:28.060Z,1.57
2019-04-26T00:29:56.737Z,1.60
2019-04-26T00:32:24.134Z,1.43
2019-04-26T00:34:54.523Z,1.37
2019-04-26T00:37:22.501Z,1.63
2019-04-26T00:39:51.484Z,2.37
2019-04-26T00:42:20.586Z,2.70
2019-04-26T00:44:49.469Z,2.20
2019-04-26T00:47:19.045Z,2.10
2019-04-26T00:49:48.285Z,2.83
2019-04-26T00:52:17.436Z,1.67
2019-04-26T00:54:46.263Z,3.97
2019-04-26T00:57:16.498Z,1.63
2019-04-26T00:59:44.926Z,2.10
2019-04-26T01:02:20.658Z,2.43
2019-04-26T01:04:49.517Z,2.53
2019-04-26T01:07:19.028Z,3.30
2019-04-26T01:09:46.748Z,1.90
2019-04-26T01:12:15.447Z,1.93
2019-04-26T01:14:43.178Z,2.30
2019-04-26T01:17:10.154Z,2.90
2019-04-26T01:19:40.190Z,4.53
2019-04-26T01:22:12.773Z,3.40
2019-04-26T01:24:43.731Z,4.33
2019-04-26T01:27:16.977Z,4.67
2019-04-26T01:29:48.903Z,2.63
2019-04-26T01:32:19.218Z,2.57
2019-04-26T01:34:49.825Z,2.27
2019-04-26T01:37:19.241Z,3.10
2019-04-26T01:39:52.545Z,3.10
2019-04-26T01:42:32.772Z,3.03
2019-04-26T01:45:10.475Z,4.43
2019-04-26T01:47:39.158Z,2.97
2019-04-26T01:50:08.592Z,2.70
2019-04-26T01:52:37.218Z,2.57
2019-04-26T01:55:06.218Z,2.90
2019-04-26T01:57:33.682Z,3.87
2019-04-26T02:00:13.852Z,3.17
2019-04-26T02:02:54.868Z,2.87
2019-04-26T02:05:24.229Z,2.53
2019-04-26T02:07:52.765Z,2.50
2019-04-26T02:10:24.125Z,3.33
2019-04-26T02:12:57.096Z,3.40
2019-04-26T02:15:29.259Z,3.50
2019-04-26T02:17:58.717Z,3.00
2019-04-26T02:21:26.267Z,3.40
2019-04-26T02:24:02.398Z,2.40
2019-04-26T02:26:35.144Z,2.33
2019-04-26T02:29:08.329Z,3.67
2019-04-26T02:31:39.220Z,2.90
2019-04-26T02:34:08.376Z,2.57
2019-04-26T02:36:55.382Z,2.67
2019-04-26T02:39:16.552Z,2.83
2019-04-26T02:41:45.442Z,2.63
2019-04-26T02:44:13.443Z,4.13
2019-04-26T02:47:16.482Z,3.37
2019-04-26T02:49:46.880Z,4.57
2019-04-26T02:52:31.995Z,2.80
2019-04-26T02:55:07.243Z,2.23
2019-04-26T02:57:41.759Z,4.27
2019-04-26T03:00:12.221Z,3.90
2019-04-26T03:02:43.168Z,4.03
2019-04-26T03:05:12.073Z,2.10
2019-04-26T03:08:13.430Z,4.20
2019-04-26T03:10:48.929Z,2.50
2019-04-26T03:13:30.755Z,2.10
2019-04-26T03:16:19.801Z,2.60
2019-04-26T03:19:11.767Z,3.08
2019-04-26T03:22:18.398Z,3.20
2019-04-26T03:24:56.319Z,3.60
2019-04-26T03:27:53.810Z,2.98
2019-04-26T03:30:33.396Z,2.67
2019-04-26T03:33:53.074Z,2.53
2019-04-26T03:37:20.623Z,2.60
2019-04-26T03:39:59.537Z,3.30
2019-04-26T03:42:57.983Z,2.33
2019-04-26T03:45:44.620Z,3.45
2019-04-26T03:48:20.443Z,2.90
2019-04-26T03:50:57.623Z,2.70
2019-04-26T03:53:44.000Z,3.42
2019-04-26T03:56:40.283Z,4.17
2019-04-26T03:59:32.300Z,3.90
2019-04-26T04:02:26.586Z,4.35
2019-04-26T04:05:12.814Z,3.90
2019-04-26T04:07:47.184Z,3.10
2019-04-26T04:10:17.898Z,3.20
2019-04-26T04:13:09.168Z,3.72
2019-04-26T04:15:46.218Z,3.30
2019-04-26T04:18:21.090Z,3.92
2019-04-26T04:21:30.094Z,3.70
2019-04-26T04:24:12.338Z,4.20
2019-04-26T04:27:19.076Z,3.77
2019-04-26T04:30:21.243Z,4.35
2019-04-26T04:33:13.599Z,5.87
2019-04-26T04:35:49.304Z,3.60
2019-04-26T04:39:12.486Z,3.50
2019-04-26T04:41:56.823Z,5.95
2019-04-26T04:45:08.654Z,3.50
2019-04-26T04:47:58.843Z,4.92
2019-04-26T04:50:47.519Z,4.15
2019-04-26T04:53:43.468Z,4.78
2019-04-26T04:56:49.838Z,4.62
2019-04-26T04:59:25.940Z,5.08
2019-04-26T05:02:16.877Z,4.10
2019-04-26T05:05:16.161Z,4.78
2019-04-26T05:08:13.375Z,7.30
2019-04-26T05:11:18.765Z,4.62
2019-04-26T05:14:13.466Z,4.42
2019-04-26T05:17:21.480Z,5.12
2019-04-26T05:20:21.309Z,6.50
2019-04-26T05:23:03.183Z,5.58
2019-04-26T05:26:32.669Z,3.62
2019-04-26T05:29:43.291Z,3.85
2019-04-26T05:32:32.512Z,6.05
2019-04-26T05:35:14.639Z,4.90
2019-04-26T05:38:18.007Z,7.30
2019-04-26T05:41:10.088Z,5.42
2019-04-26T05:44:08.415Z,5.00
2019-04-26T05:47:31.715Z,6.22
2019-04-26T05:50:41.991Z,6.37
2019-04-26T05:53:52.869Z,7.15
2019-04-26T05:56:56.243Z,5.67
2019-04-26T05:59:34.050Z,5.70
2019-04-26T06:02:52.745Z,5.25
2019-04-26T06:06:05.457Z,6.15
2019-04-26T06:09:42.261Z,7.20
2019-04-26T06:12:34.437Z,4.80
2019-04-26T06:15:33.751Z,7.50
2019-04-26T06:18:40.933Z,8.73
2019-04-26T06:21:15.509Z,5.05
2019-04-26T06:24:22.057Z,8.38
2019-04-26T06:27:27.394Z,5.75
2019-04-26T06:30:03.174Z,5.60
2019-04-26T06:33:10.290Z,9.10
2019-04-26T06:35:42.708Z,6.42
2019-04-26T06:38:59.879Z,7.45
2019-04-26T06:42:22.553Z,9.90
2019-04-26T06:45:54.090Z,7.58
2019-04-26T06:48:58.951Z,7.10
2019-04-26T06:51:33.985Z,8.93
2019-04-26T06:54:35.683Z,5.40
2019-04-26T06:57:59.439Z,6.42
2019-04-26T07:00:43.602Z,6.28
2019-04-26T07:03:47.001Z,7.70
2019-04-26T07:06:20.790Z,6.55
2019-04-26T07:08:57.771Z,7.90
2019-04-26T07:12:39.733Z,9.05
2019-04-26T07:15:32.971Z,8.23
2019-04-26T07:18:37.441Z,8.28
2019-04-26T07:21:33.754Z,8.95
2019-04-26T07:25:04.317Z,8.95
2019-04-26T07:28:06.047Z,6.97
2019-04-26T07:30:49.226Z,8.28
2019-04-26T07:33:47.156Z,9.05
2019-04-26T07:36:58.418Z,6.87
2019-04-26T07:39:54.018Z,7.53
2019-04-26T07:43:08.478Z,5.83
2019-04-26T07:46:25.178Z,6.25
2019-04-26T07:49:42.551Z,6.35
2019-04-26T07:52:37.303Z,7.33
2019-04-26T07:55:33.327Z,7.85
2019-04-26T07:58:41.540Z,7.45
2019-04-26T08:01:35.621Z,6.30
2019-04-26T08:04:13.982Z,10.15
2019-04-26T08:06:56.156Z,6.35
2019-04-26T08:09:27.605Z,5.67
2019-04-26T08:12:04.877Z,8.35
2019-04-26T08:15:09.039Z,7.00
2019-04-26T08:18:05.194Z,6.97
2019-04-26T08:20:48.215Z,6.20
2019-04-26T08:23:39.322Z,8.60
2019-04-26T08:26:00.302Z,6.45
2019-04-26T08:28:33.473Z,6.33
2019-04-26T08:31:07.331Z,7.65
2019-04-26T08:33:48.574Z,7.87
2019-04-26T08:36:17.670Z,7.25
2019-04-26T08:38:48.851Z,7.15
2019-04-26T08:41:20.999Z,6.65
2019-04-26T08:44:27.726Z,6.72
2019-04-26T08:47:15.128Z,7.22
2019-04-26T08:49:51.002Z,7.10
2019-04-26T08:52:22.470Z,7.75
2019-04-26T08:54:53.815Z,7.42
2019-04-26T08:57:25.847Z,8.83
2019-04-26T09:00:00.956Z,7.40
2019-04-26T09:02:53.339Z,7.00
2019-04-26T09:05:51.392Z,8.43
2019-04-26T09:08:24.498Z,8.13
2019-04-26T09:10:56.609Z,9.97
2019-04-26T09:13:29.988Z,9.95
2019-04-26T09:16:10.514Z,10.07
2019-04-26T09:18:43.685Z,10.17
2019-04-26T09:21:09.466Z,12.90
2019-04-26T09:23:58.862Z,11.83
2019-04-26T09:26:57.444Z,12.23
2019-04-26T09:29:30.433Z,16.00
2019-04-26T09:32:34.278Z,14.00
2019-04-26T09:35:02.706Z,13.50
2019-04-26T09:37:31.101Z,13.18
2019-04-26T09:40:09.690Z,12.78
2019-04-26T09:42:39.412Z,18.60
2019-04-26T09:45:18.687Z,8.53
2019-04-26T09:47:53.417Z,8.40
2019-04-26T09:50:36.746Z,8.73
2019-04-26T09:53:04.906Z,8.73
2019-04-26T09:55:36.420Z,8.33
2019-04-26T09:58:03.986Z,8.00
2019-04-26T10:00:31.506Z,7.73
2019-04-26T10:02:58.570Z,8.37
2019-04-26T10:05:26.214Z,8.20
2019-04-26T10:07:53.629Z,11.77
2019-04-26T10:10:24.791Z,11.30
2019-04-26T10:13:11.790Z,8.10
2019-04-26T10:15:52.457Z,8.57
2019-04-26T10:18:24.303Z,8.13
2019-04-26T10:20:51.366Z,7.97
2019-04-26T10:23:21.999Z,8.50
2019-04-26T10:25:52.131Z,8.83
2019-04-26T10:28:19.060Z,8.83
2019-04-26T10:30:47.442Z,8.10
2019-04-26T10:33:16.026Z,7.67
2019-04-26T10:35:46.060Z,8.30
2019-04-26T10:38:14.952Z,7.83
2019-04-26T10:40:43.848Z,7.00
2019-04-26T10:43:12.971Z,6.93
2019-04-26T10:45:45.892Z,7.13
2019-04-26T10:48:15.251Z,6.83
2019-04-26T10:50:43.387Z,7.23
2019-04-26T10:53:17.968Z,7.40
2019-04-26T10:56:06.153Z,7.67
2019-04-26T10:59:06.040Z,7.43
2019-04-26T11:01:33.243Z,8.40
2019-04-26T11:04:02.172Z,8.33
2019-04-26T11:06:30.807Z,8.73
2019-04-26T11:08:59.398Z,8.63
2019-04-26T11:11:27.681Z,8.60
2019-04-26T11:13:57.624Z,10.00
2019-04-26T11:16:25.860Z,8.80
2019-04-26T11:18:53.081Z,7.70
2019-04-26T11:21:22.991Z,8.70
2019-04-26T11:23:51.705Z,8.93
2019-04-26T11:26:20.211Z,8.83
2019-04-26T11:28:51.319Z,8.17
2019-04-26T11:31:23.213Z,8.30
2019-04-26T11:33:50.649Z,8.80
2019-04-26T11:36:19.043Z,7.40
2019-04-26T11:38:47.635Z,6.27
2019-04-26T11:41:15.196Z,7.50
2019-04-26T11:43:42.766Z,6.33
2019-04-26T11:46:14.271Z,7.33
2019-04-26T11:48:42.789Z,10.60
2019-04-26T11:51:11.642Z,6.17
2019-04-26T11:53:40.619Z,6.57
2019-04-26T11:56:10.593Z,8.73
2019-04-26T11:58:39.775Z,7.83
2019-04-26T12:01:10.403Z,7.53
2019-04-26T12:03:39.317Z,7.07
2019-04-26T12:06:29.062Z,9.23
2019-04-26T12:09:03.608Z,7.23
2019-04-26T12:11:35.224Z,6.93
2019-04-26T12:14:04.275Z,7.10
2019-04-26T12:16:32.736Z,5.77
2019-04-26T12:19:01.130Z,5.90
2019-04-26T12:21:30.368Z,7.03
2019-04-26T12:23:59.814Z,5.97
2019-04-26T12:26:28.915Z,8.90
2019-04-26T12:28:56.158Z,7.30
2019-04-26T12:31:23.418Z,6.17
2019-04-26T12:33:50.771Z,8.33
2019-04-26T12:36:19.145Z,6.77
2019-04-26T12:38:47.551Z,5.93
2019-04-26T12:41:25.290Z,5.70
2019-04-26T12:43:48.892Z,6.37
2019-04-26T12:46:36.494Z,6.43
2019-04-26T12:49:05.263Z,5.73
2019-04-26T12:51:34.011Z,6.27
2019-04-26T12:54:03.754Z,6.60
2019-04-26T12:56:31.297Z,5.90
2019-04-26T12:59:01.848Z,6.10
2019-04-26T13:01:29.069Z,6.10
2019-04-26T13:04:06.123Z,6.53
2019-04-26T13:06:41.968Z,8.20
2019-04-26T13:09:15.412Z,5.93
2019-04-26T13:11:56.635Z,6.70
2019-04-26T13:14:47.242Z,8.73
2019-04-26T13:17:25.728Z,6.97
2019-04-26T13:19:55.312Z,7.20
2019-04-26T13:22:22.700Z,6.47
2019-04-26T13:24:50.686Z,8.87
2019-04-26T13:27:22.245Z,6.47
2019-04-26T13:30:01.483Z,8.50
2019-04-26T13:32:21.504Z,6.10
2019-04-26T13:34:49.815Z,6.87
2019-04-26T13:37:18.001Z,5.73
2019-04-26T13:39:46.166Z,6.50
2019-04-26T13:42:17.525Z,5.43
2019-04-26T13:44:55.286Z,8.13
2019-04-26T13:47:34.426Z,5.40
2019-04-26T13:50:09.923Z,6.63
2019-04-26T13:52:38.077Z,5.50
2019-04-26T13:55:05.448Z,5.60
2019-04-26T13:57:32.399Z,6.47
2019-04-26T14:00:02.603Z,6.87
2019-04-26T14:02:32.225Z,6.67
2019-04-26T14:05:00.210Z,6.97
2019-04-26T14:07:28.408Z,6.03
2019-04-26T14:10:01.890Z,11.50
2019-04-26T14:12:30.227Z,6.97
2019-04-26T14:14:58.282Z,6.60
2019-04-26T14:17:29.700Z,7.00
2019-04-26T14:19:56.410Z,7.57
2019-04-26T14:22:32.611Z,5.50
2019-04-26T14:25:04.478Z,5.13
2019-04-26T14:27:49.907Z,5.60
2019-04-26T14:30:17.146Z,6.50
2019-04-26T14:32:45.198Z,6.23
2019-04-26T14:35:15.749Z,6.23
2019-04-26T14:37:49.960Z,6.00
2019-04-26T14:40:18.697Z,5.83
2019-04-26T14:42:48.694Z,6.67
2019-04-26T14:45:23.265Z,6.63
2019-04-26T14:47:49.334Z,7.40
2019-04-26T14:50:16.473Z,6.40
2019-04-26T14:52:43.537Z,7.30
2019-04-26T14:55:10.699Z,8.80
2019-04-26T14:57:37.817Z,9.73
2019-04-26T15:00:08.159Z,11.17
2019-04-26T15:03:06.383Z,7.20
2019-04-26T15:06:05.239Z,6.83
2019-04-26T15:08:36.134Z,7.30
2019-04-26T15:11:04.592Z,5.90
2019-04-26T15:13:36.327Z,6.17
2019-04-26T15:16:03.968Z,5.83
2019-04-26T15:18:36.868Z,5.37
2019-04-26T15:21:05.268Z,6.03
2019-04-26T15:23:33.822Z,5.07
2019-04-26T15:26:02.974Z,6.47
2019-04-26T15:28:30.113Z,7.80
2019-04-26T15:30:57.171Z,5.60
2019-04-26T15:33:29.440Z,5.93
2019-04-26T15:35:56.523Z,6.07
2019-04-26T15:38:25.004Z,4.90
2019-04-26T15:41:14.549Z,5.67
2019-04-26T15:43:53.506Z,6.40
2019-04-26T15:46:42.644Z,7.27
2019-04-26T15:49:37.089Z,6.80
2019-04-26T15:52:05.456Z,7.20
2019-04-26T15:54:33.780Z,7.93
2019-04-26T15:57:02.113Z,21.33
2019-04-26T15:59:30.710Z,5.90
2019-04-26T16:02:07.902Z,7.30
2019-04-26T16:04:34.976Z,6.33
2019-04-26T16:07:07.200Z,7.80
2019-04-26T16:09:34.493Z,6.07
2019-04-26T16:12:03.644Z,6.60
2019-04-26T16:14:36.506Z,6.00
2019-04-26T16:17:06.555Z,6.53
2019-04-26T16:19:33.949Z,7.17
2019-04-26T16:22:02.982Z,6.83
2019-04-26T16:24:34.179Z,7.83
2019-04-26T16:27:00.399Z,7.23
2019-04-26T16:29:58.267Z,6.60
2019-04-26T16:32:58.675Z,7.60
2019-04-26T16:35:28.029Z,6.50
2019-04-26T16:38:00.270Z,12.50
2019-04-26T16:40:28.380Z,9.30
2019-04-26T16:42:59.442Z,8.20
2019-04-26T16:45:32.800Z,7.07
2019-04-26T16:48:01.886Z,8.17
2019-04-26T16:50:32.075Z,8.57
2019-04-26T16:53:01.013Z,9.30
2019-04-26T16:55:35.529Z,6.53
2019-04-26T16:58:05.032Z,7.97
2019-04-26T17:00:50.056Z,6.93
2019-04-26T17:03:03.778Z,8.20
2019-04-26T17:05:47.485Z,7.20
2019-04-26T17:08:10.256Z,6.20
2019-04-26T17:10:37.997Z,5.73
2019-04-26T17:13:06.726Z,4.73
2019-04-26T17:15:34.918Z,4.93
2019-04-26T17:18:03.313Z,4.70
2019-04-26T17:20:32.215Z,6.10
2019-04-26T17:23:41.059Z,5.67
2019-04-26T17:26:33.700Z,7.33
2019-04-26T17:29:02.439Z,5.40
2019-04-26T17:31:29.874Z,5.80
2019-04-26T17:33:57.557Z,5.10
2019-04-26T17:36:25.737Z,5.80
2019-04-26T17:38:54.189Z,5.73
2019-04-26T17:41:24.585Z,7.57
2019-04-26T17:44:05.930Z,6.27
2019-04-26T17:46:23.367Z,6.40
2019-04-26T17:48:51.723Z,5.57
2019-04-26T17:51:22.941Z,10.10
2019-04-26T17:54:19.017Z,11.70
2019-04-26T17:56:26.121Z,6.10
2019-04-26T17:58:55.154Z,6.47
2019-04-26T18:01:42.023Z,5.37
2019-04-26T18:04:00.307Z,7.67
2019-04-26T18:06:30.094Z,8.13
2019-04-26T18:08:58.907Z,7.80
2019-04-26T18:11:33.043Z,6.93
2019-04-26T18:14:02.931Z,5.93
2019-04-26T18:16:32.923Z,5.03
2019-04-26T18:19:37.387Z,5.40
2019-04-26T18:22:17.514Z,5.80
2019-04-26T18:24:45.647Z,5.60
2019-04-26T18:27:14.846Z,6.63
2019-04-26T18:29:43.662Z,5.80
2019-04-26T18:32:12.958Z,6.20
2019-04-26T18:34:40.808Z,4.93
2019-04-26T18:37:08.280Z,5.50
2019-04-26T18:39:35.410Z,5.50
2019-04-26T18:42:05.805Z,6.67
2019-04-26T18:44:36.953Z,6.50
2019-04-26T18:47:14.659Z,5.87
2019-04-26T18:49:41.206Z,6.23
2019-04-26T18:52:09.318Z,10.60
2019-04-26T18:54:52.426Z,7.23
2019-04-26T18:57:20.714Z,7.50
2019-04-26T18:59:51.488Z,7.97
2019-04-26T19:02:20.289Z,9.00
2019-04-26T19:04:49.613Z,7.37
2019-04-26T19:07:17.534Z,9.73
2019-04-26T19:09:58.952Z,11.73
2019-04-26T19:12:18.432Z,8.03
2019-04-26T19:15:07.556Z,9.53
2019-04-26T19:17:46.079Z,10.63
2019-04-26T19:20:42.645Z,9.53
2019-04-26T19:23:12.180Z,8.60
2019-04-26T19:25:41.286Z,11.20
2019-04-26T19:28:09.976Z,10.00
2019-04-26T19:30:40.096Z,7.70
2019-04-26T19:33:11.523Z,8.57
2019-04-26T19:35:39.430Z,10.37
2019-04-26T19:38:12.011Z,10.10
2019-04-26T19:40:39.311Z,8.67
2019-04-26T19:43:09.358Z,7.97
2019-04-26T19:46:07.059Z,9.43
2019-04-26T19:49:14.113Z,13.70
2019-04-26T19:52:03.703Z,7.73
2019-04-26T19:54:39.500Z,9.10
2019-04-26T19:57:21.747Z,9.83
2019-04-26T19:59:52.554Z,7.70
2019-04-26T20:02:21.477Z,8.60
2019-04-26T20:04:51.394Z,11.50
2019-04-26T20:07:19.811Z,10.10
2019-04-26T20:09:47.489Z,7.80
2019-04-26T20:12:14.730Z,8.00
2019-04-26T20:14:49.131Z,8.87
2019-04-26T20:17:19.370Z,10.93
2019-04-26T20:19:43.218Z,9.00
2019-04-26T20:22:11.966Z,9.20
2019-04-26T20:24:41.361Z,9.10
2019-04-26T20:27:15.647Z,9.20
2019-04-26T20:29:47.282Z,8.90
2019-04-26T20:32:29.069Z,10.30
2019-04-26T20:35:19.858Z,11.20
2019-04-26T20:37:48.556Z,9.20
2019-04-26T20:40:22.384Z,9.07
2019-04-26T20:42:47.141Z,9.80
2019-04-26T20:45:16.961Z,8.60
2019-04-26T20:47:46.692Z,8.63
2019-04-26T20:50:15.230Z,8.87
2019-04-26T20:52:45.356Z,9.17
2019-04-26T20:55:13.934Z,8.90
2019-04-26T20:57:44.577Z,10.23
2019-04-26T21:00:13.285Z,9.13
2019-04-26T21:02:41.980Z,9.10
2019-04-26T21:05:14.731Z,9.20
2019-04-26T21:07:42.010Z,7.83
2019-04-26T21:10:14.549Z,11.00
2019-04-26T21:12:41.765Z,8.87
2019-04-26T21:15:09.265Z,7.50
2019-04-26T21:17:39.047Z,9.23
2019-04-26T21:20:07.408Z,10.72
2019-04-26T21:22:35.578Z,7.30
2019-04-26T21:25:15.017Z,7.33
2019-04-26T21:27:54.834Z,8.30
2019-04-26T21:30:35.221Z,6.97
2019-04-26T21:33:13.985Z,7.93
2019-04-26T21:35:50.230Z,7.23
2019-04-26T21:38:29.632Z,8.00
2019-04-26T21:41:16.610Z,8.00
2019-04-26T21:43:43.886Z,7.57
2019-04-26T21:46:18.475Z,8.87
2019-04-26T21:48:44.605Z,7.90
2019-04-26T21:51:16.247Z,8.67
2019-04-26T21:53:45.338Z,10.32
2019-04-26T21:56:14.726Z,8.73
2019-04-26T21:58:43.646Z,8.10
2019-04-26T22:01:19.253Z,7.83
2019-04-26T22:03:54.073Z,7.72
2019-04-26T22:06:19.992Z,7.37
2019-04-26T22:08:59.322Z,7.80
2019-04-26T22:11:25.836Z,7.40
2019-04-26T22:14:04.226Z,7.10
2019-04-26T22:16:57.644Z,7.00
2019-04-26T22:19:36.358Z,7.28
2019-04-26T22:22:15.143Z,8.83
2019-04-26T22:24:43.480Z,6.03
2019-04-26T22:27:17.406Z,8.15
2019-04-26T22:29:47.607Z,6.72
2019-04-26T22:32:19.099Z,8.35
2019-04-26T22:34:46.365Z,7.40
2019-04-26T22:37:18.903Z,8.03
2019-04-26T22:39:44.371Z,8.33
2019-04-26T22:42:14.380Z,6.72
2019-04-26T22:44:48.764Z,9.08
2019-04-26T22:47:42.382Z,7.97
2019-04-26T22:50:09.527Z,6.65
2019-04-26T22:52:38.218Z,7.97
2019-04-26T22:55:07.048Z,5.75
2019-04-26T22:57:36.218Z,5.58
2019-04-26T23:00:05.335Z,6.62
2019-04-26T23:02:33.719Z,7.30
2019-04-26T23:05:05.775Z,7.25
2019-04-26T23:07:36.644Z,5.80
2019-04-26T23:10:07.931Z,5.70
2019-04-26T23:12:54.002Z,5.53
2019-04-26T23:15:30.131Z,4.83
2019-04-26T23:18:08.200Z,4.37
2019-04-26T23:20:44.527Z,5.20
2019-04-26T23:23:13.504Z,5.30
2019-04-26T23:25:43.520Z,8.05
2019-04-26T23:28:11.363Z,4.87
2019-04-26T23:30:39.066Z,4.17
2019-04-26T23:33:06.890Z,4.92
2019-04-26T23:35:37.497Z,4.42
2019-04-26T23:38:05.515Z,6.90
2019-04-26T23:40:33.945Z,3.92
2019-04-26T23:43:03.706Z,5.85
2019-04-26T23:45:33.298Z,4.22
2019-04-26T23:48:03.397Z,6.42
2019-04-26T23:50:31.858Z,6.22
2019-04-26T23:53:00.148Z,6.92
2019-04-26T23:55:31.134Z,4.58
2019-04-26T23:58:10.651Z,5.35
